createdAt,value
2022-09-27T00:00:16.471Z,1.93
2022-09-27T00:04:13.480Z,2.07
2022-09-27T00:08:10.543Z,1.73
2022-09-27T00:12:07.470Z,2.13
2022-09-27T00:16:05.536Z,2.40
2022-09-27T00:20:05.815Z,2.47
2022-09-27T00:24:03.306Z,2.40
2022-09-27T00:28:00.327Z,2.20
2022-09-27T00:31:57.346Z,2.83
2022-09-27T00:35:54.584Z,3.00
2022-09-27T00:39:51.688Z,2.60
2022-09-27T00:44:02.002Z,2.90
2022-09-27T00:48:05.531Z,3.40
2022-09-27T00:52:08.830Z,2.97
2022-09-27T00:56:12.687Z,3.13
2022-09-27T01:00:13.167Z,3.17
2022-09-27T01:04:14.234Z,3.00
2022-09-27T01:08:11.238Z,3.20
2022-09-27T01:12:39.929Z,3.43
2022-09-27T01:17:09.590Z,3.87
2022-09-27T01:21:45.362Z,3.57
2022-09-27T01:26:12.819Z,3.83
2022-09-27T01:30:32.600Z,3.53
2022-09-27T01:34:43.727Z,3.23
2022-09-27T01:39:10.978Z,3.07
2022-09-27T01:43:42.665Z,3.40
2022-09-27T01:47:59.993Z,3.27
2022-09-27T01:52:28.140Z,3.00
2022-09-27T01:56:50.559Z,2.70
2022-09-27T02:00:55.708Z,2.93
2022-09-27T02:04:59.023Z,2.50
2022-09-27T02:09:13.623Z,2.50
2022-09-27T02:13:28.049Z,2.60
2022-09-27T02:18:01.773Z,2.63
2022-09-27T02:22:39.506Z,2.53
2022-09-27T02:26:42.383Z,2.83
2022-09-27T02:30:39.623Z,1.60
2022-09-27T02:34:50.877Z,1.60
2022-09-27T02:38:48.534Z,1.60
2022-09-27T02:42:48.357Z,1.43
2022-09-27T02:47:33.548Z,1.10
2022-09-27T02:51:53.159Z,1.20
2022-09-27T02:56:19.996Z,1.20
2022-09-27T03:01:06.127Z,1.17
2022-09-27T03:05:40.687Z,1.20
2022-09-27T03:09:49.430Z,1.30
2022-09-27T03:14:07.383Z,1.40
2022-09-27T03:18:06.112Z,1.37
2022-09-27T03:22:21.788Z,1.30
2022-09-27T03:26:18.908Z,1.60
2022-09-27T03:30:16.175Z,1.70
2022-09-27T03:34:13.789Z,1.90
2022-09-27T03:38:11.338Z,1.40
2022-09-27T03:42:09.222Z,2.50
2022-09-27T03:46:11.413Z,1.90
2022-09-27T03:50:11.678Z,3.70
2022-09-27T03:54:09.597Z,2.83
2022-09-27T03:58:06.649Z,2.10
2022-09-27T04:02:04.558Z,2.70
2022-09-27T04:06:24.326Z,2.50
2022-09-27T04:10:21.928Z,3.47
2022-09-27T04:14:19.843Z,2.33
2022-09-27T04:18:36.894Z,2.20
2022-09-27T04:22:52.299Z,1.80
2022-09-27T04:26:50.570Z,2.00
2022-09-27T04:30:53.953Z,2.33
2022-09-27T04:35:24.571Z,1.70
2022-09-27T04:39:21.592Z,1.13
2022-09-27T04:43:18.662Z,0.90
2022-09-27T04:47:15.874Z,0.90
2022-09-27T04:51:13.998Z,0.73
2022-09-27T04:55:11.482Z,0.90
2022-09-27T04:59:10.986Z,0.90
2022-09-27T05:03:09.871Z,1.20
2022-09-27T05:07:24.576Z,1.00
2022-09-27T05:11:26.802Z,1.03
2022-09-27T05:15:42.588Z,0.90
2022-09-27T05:20:04.100Z,0.90
2022-09-27T05:24:11.169Z,0.67
2022-09-27T05:28:09.240Z,0.77
2022-09-27T05:32:06.232Z,0.70
2022-09-27T05:36:04.834Z,0.80
2022-09-27T05:40:16.923Z,0.70
2022-09-27T05:44:19.632Z,0.90
2022-09-27T05:48:25.310Z,1.20
2022-09-27T05:52:36.485Z,1.10
2022-09-27T05:56:33.527Z,1.43
2022-09-27T06:00:54.419Z,1.37
2022-09-27T06:05:17.608Z,1.30
2022-09-27T06:09:44.324Z,1.00
2022-09-27T06:13:42.594Z,1.30
2022-09-27T06:17:41.290Z,1.40
2022-09-27T06:21:49.846Z,1.23
2022-09-27T06:25:47.509Z,1.20
2022-09-27T06:29:52.395Z,1.20
2022-09-27T06:34:05.113Z,1.30
2022-09-27T06:38:09.315Z,1.00
2022-09-27T06:42:11.225Z,1.27
2022-09-27T06:46:31.637Z,1.87
2022-09-27T06:50:44.179Z,1.30
2022-09-27T06:54:42.150Z,1.00
2022-09-27T06:58:57.656Z,0.87
2022-09-27T07:03:23.337Z,1.10
2022-09-27T07:07:34.195Z,0.80
2022-09-27T07:11:31.539Z,1.00
2022-09-27T07:15:28.464Z,0.90
2022-09-27T07:19:25.720Z,0.90
2022-09-27T07:23:22.969Z,0.97
2022-09-27T07:27:20.114Z,1.10
2022-09-27T07:31:17.556Z,1.40
2022-09-27T07:35:15.713Z,2.47
2022-09-27T07:39:14.352Z,1.00
2022-09-27T07:43:12.397Z,0.90
2022-09-27T07:47:11.105Z,0.70
2022-09-27T07:51:34.309Z,0.70
2022-09-27T07:55:37.480Z,0.93
2022-09-27T07:59:40.705Z,0.97
2022-09-27T08:03:40.511Z,1.00
2022-09-27T08:07:39.745Z,0.80
2022-09-27T08:11:37.479Z,0.60
2022-09-27T08:15:39.055Z,0.60
2022-09-27T08:19:36.385Z,0.77
2022-09-27T08:23:55.600Z,1.00
2022-09-27T08:28:04.900Z,1.37
2022-09-27T08:32:16.387Z,2.43
2022-09-27T08:36:16.863Z,1.10
2022-09-27T08:40:17.761Z,0.70
2022-09-27T08:44:48.641Z,0.97
2022-09-27T08:48:54.433Z,0.70
2022-09-27T08:53:23.603Z,0.70
2022-09-27T08:57:24.550Z,0.87
2022-09-27T09:01:27.883Z,0.97
2022-09-27T09:05:36.419Z,0.90
2022-09-27T09:10:03.528Z,0.70
2022-09-27T09:14:45.961Z,0.80
2022-09-27T09:19:08.026Z,0.80
2022-09-27T09:24:31.964Z,1.00
2022-09-27T09:28:53.686Z,1.10
2022-09-27T09:33:21.066Z,0.90
2022-09-27T09:37:49.889Z,1.10
2022-09-27T09:42:05.012Z,0.70
2022-09-27T09:46:17.470Z,1.23
2022-09-27T09:50:42.423Z,0.50
2022-09-27T09:55:02.451Z,0.63
2022-09-27T09:59:11.165Z,0.70
2022-09-27T10:03:11.351Z,0.63
2022-09-27T10:07:09.463Z,0.50
2022-09-27T10:11:12.365Z,0.70
2022-09-27T10:15:31.046Z,0.53
2022-09-27T10:19:34.471Z,0.50
2022-09-27T10:23:34.532Z,0.60
2022-09-27T10:27:55.966Z,0.60
2022-09-27T10:31:59.782Z,0.60
2022-09-27T10:36:25.974Z,0.50
2022-09-27T10:40:34.167Z,0.33
2022-09-27T10:44:34.615Z,0.30
2022-09-27T10:49:22.430Z,0.57
2022-09-27T10:53:22.567Z,0.40
2022-09-27T10:57:30.978Z,0.50
2022-09-27T11:01:48.496Z,0.50
2022-09-27T11:06:23.723Z,0.50
2022-09-27T11:10:37.445Z,0.40
2022-09-27T11:14:36.573Z,0.40
2022-09-27T11:19:11.994Z,0.60
2022-09-27T11:23:55.053Z,0.50
2022-09-27T11:27:59.800Z,0.67
2022-09-27T11:32:16.689Z,0.57
2022-09-27T11:37:02.867Z,0.40
2022-09-27T11:41:36.606Z,0.30
2022-09-27T11:46:16.638Z,0.70
2022-09-27T11:51:07.438Z,0.90
2022-09-27T11:55:34.340Z,0.50
2022-09-27T12:00:19.641Z,0.40
2022-09-27T12:04:51.668Z,0.57
2022-09-27T12:09:22.141Z,0.50
2022-09-27T12:13:41.557Z,0.50
2022-09-27T12:17:47.375Z,0.40
2022-09-27T12:21:45.966Z,0.30
2022-09-27T12:25:47.035Z,0.20
2022-09-27T12:29:51.547Z,0.40
2022-09-27T12:34:35.265Z,0.32
2022-09-27T12:39:05.705Z,0.40
2022-09-27T12:43:19.455Z,0.57
2022-09-27T12:48:14.403Z,0.50
2022-09-27T12:52:25.431Z,0.80
2022-09-27T12:57:01.415Z,0.73
2022-09-27T13:01:05.608Z,0.70
2022-09-27T13:05:26.154Z,0.50
2022-09-27T13:09:54.776Z,0.65
2022-09-27T13:13:59.976Z,0.87
2022-09-27T13:18:01.699Z,0.90
2022-09-27T13:22:38.690Z,0.80
2022-09-27T13:27:01.463Z,0.67
2022-09-27T13:31:07.586Z,1.30
2022-09-27T13:35:20.521Z,1.00
2022-09-27T13:39:23.255Z,0.60
2022-09-27T13:44:07.730Z,0.90
2022-09-27T13:48:45.678Z,1.07
2022-09-27T13:53:07.083Z,0.63
2022-09-27T13:57:24.787Z,0.90
2022-09-27T14:01:52.637Z,0.90
2022-09-27T14:06:07.854Z,2.58
2022-09-27T14:10:14.480Z,2.25
2022-09-27T14:14:23.469Z,1.55
2022-09-27T14:18:25.082Z,1.20
2022-09-27T14:22:24.176Z,1.10
2022-09-27T14:26:30.070Z,1.45
2022-09-27T14:30:30.410Z,1.17
2022-09-27T14:34:39.874Z,1.30
2022-09-27T14:38:41.864Z,1.40
2022-09-27T14:42:53.979Z,1.70
2022-09-27T14:47:10.646Z,1.80
2022-09-27T14:51:14.069Z,1.70
2022-09-27T14:55:21.345Z,2.70
2022-09-27T14:59:35.208Z,2.20
2022-09-27T15:03:38.424Z,1.80
2022-09-27T15:07:38.054Z,1.50
2022-09-27T15:11:35.336Z,1.83
2022-09-27T15:15:39.889Z,1.97
2022-09-27T15:19:37.059Z,1.50
2022-09-27T15:23:44.101Z,1.00
2022-09-27T15:27:41.059Z,1.50
2022-09-27T15:31:38.047Z,1.20
2022-09-27T15:35:36.850Z,1.20
2022-09-27T15:39:41.732Z,1.00
2022-09-27T15:43:50.096Z,1.17
2022-09-27T15:47:50.340Z,0.97
2022-09-27T15:51:54.438Z,0.90
2022-09-27T15:55:51.408Z,0.80
2022-09-27T15:59:48.439Z,0.90
2022-09-27T16:03:45.460Z,0.90
2022-09-27T16:07:42.472Z,0.90
2022-09-27T16:11:39.421Z,0.80
2022-09-27T16:15:37.425Z,1.20
2022-09-27T16:19:34.414Z,1.40
2022-09-27T16:23:31.361Z,1.43
2022-09-27T16:27:29.402Z,0.90
2022-09-27T16:31:26.415Z,1.17
2022-09-27T16:35:24.455Z,1.30
2022-09-27T16:39:21.474Z,1.00
2022-09-27T16:43:20.018Z,1.50
2022-09-27T16:47:17.129Z,1.10
2022-09-27T16:51:37.202Z,0.93
2022-09-27T16:55:35.921Z,0.80
2022-09-27T16:59:32.917Z,1.23
2022-09-27T17:03:30.151Z,1.80
2022-09-27T17:07:27.110Z,1.93
2022-09-27T17:11:24.087Z,2.40
2022-09-27T17:15:22.378Z,2.00
2022-09-27T17:19:19.459Z,2.07
2022-09-27T17:23:16.465Z,1.90
2022-09-27T17:27:13.472Z,3.07
2022-09-27T17:31:15.550Z,2.23
2022-09-27T17:35:12.648Z,1.67
2022-09-27T17:39:15.525Z,2.67
2022-09-27T17:43:12.574Z,3.53
2022-09-27T17:47:28.069Z,4.63
2022-09-27T17:51:25.219Z,5.37
2022-09-27T17:55:23.363Z,3.10
2022-09-27T17:59:20.451Z,2.57
2022-09-27T18:03:17.370Z,3.50
2022-09-27T18:07:14.619Z,2.30
2022-09-27T18:11:15.471Z,2.40
2022-09-27T18:15:12.860Z,1.70
2022-09-27T18:19:17.212Z,1.33
2022-09-27T18:23:14.257Z,4.07
2022-09-27T18:27:15.866Z,2.93
2022-09-27T18:31:16.956Z,2.00
2022-09-27T18:35:14.101Z,2.00
2022-09-27T18:39:15.876Z,1.90
2022-09-27T18:43:12.858Z,1.40
2022-09-27T18:47:09.861Z,1.40
2022-09-27T18:51:16.347Z,1.50
2022-09-27T18:55:13.633Z,1.20
2022-09-27T18:59:11.585Z,0.90
2022-09-27T19:03:15.408Z,1.00
2022-09-27T19:07:12.574Z,0.97
2022-09-27T19:11:16.043Z,0.97
2022-09-27T19:15:13.072Z,1.00
2022-09-27T19:19:10.242Z,0.80
2022-09-27T19:23:07.432Z,2.07
2022-09-27T19:27:04.432Z,4.93
2022-09-27T19:31:10.586Z,1.33
2022-09-27T19:35:08.867Z,1.50
2022-09-27T19:39:05.952Z,1.30
2022-09-27T19:43:02.932Z,1.30
2022-09-27T19:46:59.963Z,1.20
2022-09-27T19:50:59.725Z,1.03
2022-09-27T19:54:56.719Z,1.20
2022-09-27T19:58:54.650Z,1.00
2022-09-27T20:02:52.121Z,1.10
2022-09-27T20:06:49.203Z,1.00
2022-09-27T20:11:05.903Z,1.60
2022-09-27T20:15:03.867Z,1.20
2022-09-27T20:19:01.642Z,1.80
2022-09-27T20:22:58.564Z,1.00
2022-09-27T20:26:55.583Z,1.30
2022-09-27T20:31:05.213Z,1.07
2022-09-27T20:35:04.078Z,1.10
2022-09-27T20:39:05.831Z,1.37
2022-09-27T20:43:02.811Z,1.20
2022-09-27T20:47:02.115Z,1.40
2022-09-27T20:51:04.450Z,1.60
2022-09-27T20:55:01.774Z,1.60
2022-09-27T20:59:03.172Z,1.47
2022-09-27T21:03:00.808Z,1.53
2022-09-27T21:06:58.957Z,1.30
2022-09-27T21:10:55.969Z,1.40
2022-09-27T21:14:52.898Z,1.60
2022-09-27T21:18:55.877Z,1.03
2022-09-27T21:22:52.841Z,1.20
2022-09-27T21:26:50.001Z,1.20
2022-09-27T21:30:46.928Z,1.23
2022-09-27T21:34:43.897Z,1.10
2022-09-27T21:38:41.077Z,1.10
2022-09-27T21:42:38.295Z,1.13
2022-09-27T21:46:38.667Z,1.30
2022-09-27T21:50:35.729Z,1.20
2022-09-27T21:54:32.680Z,1.40
2022-09-27T21:58:33.785Z,1.53
2022-09-27T22:02:30.776Z,1.80
2022-09-27T22:06:34.103Z,1.90
2022-09-27T22:10:31.159Z,1.90
2022-09-27T22:14:28.128Z,2.17
2022-09-27T22:18:25.117Z,1.70
2022-09-27T22:22:22.087Z,1.70
2022-09-27T22:26:24.114Z,2.10
2022-09-27T22:30:21.046Z,2.10
2022-09-27T22:34:28.982Z,2.00
2022-09-27T22:38:26.323Z,2.20
2022-09-27T22:42:23.358Z,2.20
2022-09-27T22:46:22.103Z,2.20
2022-09-27T22:50:19.345Z,1.90
2022-09-27T22:54:16.478Z,2.03
2022-09-27T22:58:13.466Z,2.40
2022-09-27T23:02:10.486Z,2.00
2022-09-27T23:06:08.936Z,2.07
2022-09-27T23:10:07.109Z,2.07
2022-09-27T23:14:06.662Z,1.93
2022-09-27T23:18:03.970Z,2.03
2022-09-27T23:22:01.753Z,2.00
2022-09-27T23:26:08.190Z,2.20
2022-09-27T23:30:05.965Z,2.40
2022-09-27T23:34:04.968Z,1.93
2022-09-27T23:38:01.905Z,2.10
2022-09-27T23:41:58.871Z,1.87
2022-09-27T23:45:57.326Z,3.23
2022-09-27T23:49:54.714Z,2.47
2022-09-27T23:53:51.667Z,2.00
2022-09-27T23:57:48.604Z,2.20
